sensor_id;sensor_type;location;lat;lon;timestamp;temperature;humidity
60723;DHT22;46574;52.818;6.516;2023-09-08T00:00:12;20.50;99.90
60723;DHT22;46574;52.818;6.516;2023-09-08T00:02:38;20.50;99.90
60723;DHT22;46574;52.818;6.516;2023-09-08T00:05:03;20.50;99.90
60723;DHT22;46574;52.818;6.516;2023-09-08T00:07:29;20.50;99.90
60723;DHT22;46574;52.818;6.516;2023-09-08T00:09:55;20.50;99.90
60723;DHT22;46574;52.818;6.516;2023-09-08T00:12:21;20.40;99.90
60723;DHT22;46574;52.818;6.516;2023-09-08T00:14:46;20.40;99.90
60723;DHT22;46574;52.818;6.516;2023-09-08T00:17:12;20.30;99.90
60723;DHT22;46574;52.818;6.516;2023-09-08T00:19:38;20.30;99.90
60723;DHT22;46574;52.818;6.516;2023-09-08T00:22:04;20.30;99.90
60723;DHT22;46574;52.818;6.516;2023-09-08T00:24:31;20.30;99.90
60723;DHT22;46574;52.818;6.516;2023-09-08T00:26:57;20.30;99.90
60723;DHT22;46574;52.818;6.516;2023-09-08T00:29:22;20.20;99.90
60723;DHT22;46574;52.818;6.516;2023-09-08T00:31:48;20.20;99.90
60723;DHT22;46574;52.818;6.516;2023-09-08T00:34:14;20.10;99.90
60723;DHT22;46574;52.818;6.516;2023-09-08T00:36:39;20.10;99.90
60723;DHT22;46574;52.818;6.516;2023-09-08T00:39:05;20.10;99.90
60723;DHT22;46574;52.818;6.516;2023-09-08T00:41:30;20.00;99.90
60723;DHT22;46574;52.818;6.516;2023-09-08T00:43:56;19.90;99.90
60723;DHT22;46574;52.818;6.516;2023-09-08T00:46:22;19.90;99.90
60723;DHT22;46574;52.818;6.516;2023-09-08T00:48:49;19.70;99.90
60723;DHT22;46574;52.818;6.516;2023-09-08T00:51:14;19.70;99.90
60723;DHT22;46574;52.818;6.516;2023-09-08T00:53:40;19.70;99.90
60723;DHT22;46574;52.818;6.516;2023-09-08T00:56:07;19.70;99.90
60723;DHT22;46574;52.818;6.516;2023-09-08T00:58:34;19.60;99.90
60723;DHT22;46574;52.818;6.516;2023-09-08T01:01:00;19.60;99.90
60723;DHT22;46574;52.818;6.516;2023-09-08T01:03:26;19.60;99.90
60723;DHT22;46574;52.818;6.516;2023-09-08T01:05:52;19.60;99.90
60723;DHT22;46574;52.818;6.516;2023-09-08T01:08:18;19.60;99.90
60723;DHT22;46574;52.818;6.516;2023-09-08T01:10:45;19.60;99.90
60723;DHT22;46574;52.818;6.516;2023-09-08T01:13:11;19.60;99.90
60723;DHT22;46574;52.818;6.516;2023-09-08T01:15:36;19.60;99.90
60723;DHT22;46574;52.818;6.516;2023-09-08T01:18:02;19.50;99.90
60723;DHT22;46574;52.818;6.516;2023-09-08T01:23:18;19.50;99.90
60723;DHT22;46574;52.818;6.516;2023-09-08T01:25:59;19.50;99.90
60723;DHT22;46574;52.818;6.516;2023-09-08T01:28:27;19.50;99.90
60723;DHT22;46574;52.818;6.516;2023-09-08T01:30:54;19.40;99.90
60723;DHT22;46574;52.818;6.516;2023-09-08T01:33:22;19.40;99.90
60723;DHT22;46574;52.818;6.516;2023-09-08T01:35:49;19.40;99.90
60723;DHT22;46574;52.818;6.516;2023-09-08T01:38:14;19.40;99.90
60723;DHT22;46574;52.818;6.516;2023-09-08T01:40:40;19.40;99.90
60723;DHT22;46574;52.818;6.516;2023-09-08T01:43:06;19.30;99.90
60723;DHT22;46574;52.818;6.516;2023-09-08T01:45:31;19.30;99.90
60723;DHT22;46574;52.818;6.516;2023-09-08T01:47:57;19.30;99.90
60723;DHT22;46574;52.818;6.516;2023-09-08T01:50:23;19.10;99.90
60723;DHT22;46574;52.818;6.516;2023-09-08T01:52:50;19.00;99.90
60723;DHT22;46574;52.818;6.516;2023-09-08T01:55:16;18.90;99.90
60723;DHT22;46574;52.818;6.516;2023-09-08T01:57:43;18.90;99.90
60723;DHT22;46574;52.818;6.516;2023-09-08T02:00:10;18.80;99.90
60723;DHT22;46574;52.818;6.516;2023-09-08T02:02:35;18.70;99.90
60723;DHT22;46574;52.818;6.516;2023-09-08T02:05:01;18.60;99.90
60723;DHT22;46574;52.818;6.516;2023-09-08T02:07:27;18.60;99.90
60723;DHT22;46574;52.818;6.516;2023-09-08T02:09:52;18.50;99.90
60723;DHT22;46574;52.818;6.516;2023-09-08T02:12:18;18.40;99.90
60723;DHT22;46574;52.818;6.516;2023-09-08T02:14:44;18.40;99.90
60723;DHT22;46574;52.818;6.516;2023-09-08T02:17:10;18.40;99.90
60723;DHT22;46574;52.818;6.516;2023-09-08T02:19:35;18.30;99.90
60723;DHT22;46574;52.818;6.516;2023-09-08T02:22:01;18.40;99.90
60723;DHT22;46574;52.818;6.516;2023-09-08T02:24:27;18.40;99.90
60723;DHT22;46574;52.818;6.516;2023-09-08T02:26:54;18.50;99.90
60723;DHT22;46574;52.818;6.516;2023-09-08T02:29:19;18.50;99.90
60723;DHT22;46574;52.818;6.516;2023-09-08T02:31:45;18.60;99.90
60723;DHT22;46574;52.818;6.516;2023-09-08T02:34:11;18.60;99.90
60723;DHT22;46574;52.818;6.516;2023-09-08T02:36:38;18.60;99.90
60723;DHT22;46574;52.818;6.516;2023-09-08T02:39:04;18.60;99.90
60723;DHT22;46574;52.818;6.516;2023-09-08T02:41:30;18.60;99.90
60723;DHT22;46574;52.818;6.516;2023-09-08T02:43:56;18.60;99.90
60723;DHT22;46574;52.818;6.516;2023-09-08T02:46:21;18.60;99.90
60723;DHT22;46574;52.818;6.516;2023-09-08T02:48:47;18.60;99.90
60723;DHT22;46574;52.818;6.516;2023-09-08T02:51:13;18.60;99.90
60723;DHT22;46574;52.818;6.516;2023-09-08T02:53:38;18.60;99.90
60723;DHT22;46574;52.818;6.516;2023-09-08T02:56:04;18.60;99.90
60723;DHT22;46574;52.818;6.516;2023-09-08T02:58:31;18.60;99.90
60723;DHT22;46574;52.818;6.516;2023-09-08T03:01:16;18.60;99.90
60723;DHT22;46574;52.818;6.516;2023-09-08T03:03:46;18.60;99.90
60723;DHT22;46574;52.818;6.516;2023-09-08T03:06:14;18.60;99.90
60723;DHT22;46574;52.818;6.516;2023-09-08T03:08:40;18.60;99.90
60723;DHT22;46574;52.818;6.516;2023-09-08T03:11:06;18.60;99.90
60723;DHT22;46574;52.818;6.516;2023-09-08T03:13:35;18.60;99.90
60723;DHT22;46574;52.818;6.516;2023-09-08T03:16:08;18.60;99.90
60723;DHT22;46574;52.818;6.516;2023-09-08T03:18:35;18.50;99.90
60723;DHT22;46574;52.818;6.516;2023-09-08T03:21:02;18.50;99.90
60723;DHT22;46574;52.818;6.516;2023-09-08T03:23:39;18.50;99.90
60723;DHT22;46574;52.818;6.516;2023-09-08T03:26:04;18.50;99.90
60723;DHT22;46574;52.818;6.516;2023-09-08T03:28:31;18.50;99.90
60723;DHT22;46574;52.818;6.516;2023-09-08T03:30:57;18.50;99.90
60723;DHT22;46574;52.818;6.516;2023-09-08T03:33:23;18.40;99.90
60723;DHT22;46574;52.818;6.516;2023-09-08T03:35:49;18.40;99.90
60723;DHT22;46574;52.818;6.516;2023-09-08T03:38:14;18.40;99.90
60723;DHT22;46574;52.818;6.516;2023-09-08T03:40:40;18.40;99.90
60723;DHT22;46574;52.818;6.516;2023-09-08T03:43:06;18.30;99.90
60723;DHT22;46574;52.818;6.516;2023-09-08T03:45:32;18.30;99.90
60723;DHT22;46574;52.818;6.516;2023-09-08T03:47:57;18.30;99.90
60723;DHT22;46574;52.818;6.516;2023-09-08T03:50:23;18.30;99.90
60723;DHT22;46574;52.818;6.516;2023-09-08T03:52:49;18.30;99.90
60723;DHT22;46574;52.818;6.516;2023-09-08T03:55:15;18.20;99.90
60723;DHT22;46574;52.818;6.516;2023-09-08T03:57:42;18.30;99.90
60723;DHT22;46574;52.818;6.516;2023-09-08T04:00:08;18.20;99.90
60723;DHT22;46574;52.818;6.516;2023-09-08T04:02:36;18.20;99.90
60723;DHT22;46574;52.818;6.516;2023-09-08T04:05:02;18.20;99.90
60723;DHT22;46574;52.818;6.516;2023-09-08T04:07:28;18.20;99.90
60723;DHT22;46574;52.818;6.516;2023-09-08T04:09:53;18.20;99.90
60723;DHT22;46574;52.818;6.516;2023-09-08T04:12:19;18.10;99.90
60723;DHT22;46574;52.818;6.516;2023-09-08T04:14:45;18.20;99.90
60723;DHT22;46574;52.818;6.516;2023-09-08T04:17:10;18.10;99.90
60723;DHT22;46574;52.818;6.516;2023-09-08T04:19:36;18.10;99.90
60723;DHT22;46574;52.818;6.516;2023-09-08T04:22:02;18.10;99.90
60723;DHT22;46574;52.818;6.516;2023-09-08T04:24:28;18.10;99.90
60723;DHT22;46574;52.818;6.516;2023-09-08T04:26:54;18.00;99.90
60723;DHT22;46574;52.818;6.516;2023-09-08T04:29:19;18.00;99.90
60723;DHT22;46574;52.818;6.516;2023-09-08T04:31:45;18.00;99.90
60723;DHT22;46574;52.818;6.516;2023-09-08T04:34:10;18.00;99.90
60723;DHT22;46574;52.818;6.516;2023-09-08T04:36:37;17.90;99.90
60723;DHT22;46574;52.818;6.516;2023-09-08T04:39:02;17.90;99.90
60723;DHT22;46574;52.818;6.516;2023-09-08T04:41:28;17.90;99.90
60723;DHT22;46574;52.818;6.516;2023-09-08T04:43:54;17.90;99.90
60723;DHT22;46574;52.818;6.516;2023-09-08T04:46:20;17.90;99.90
60723;DHT22;46574;52.818;6.516;2023-09-08T04:48:46;17.90;99.90
60723;DHT22;46574;52.818;6.516;2023-09-08T04:51:12;17.90;99.90
60723;DHT22;46574;52.818;6.516;2023-09-08T04:53:37;17.80;99.90
60723;DHT22;46574;52.818;6.516;2023-09-08T04:56:03;17.90;99.90
60723;DHT22;46574;52.818;6.516;2023-09-08T04:58:29;17.80;99.90
60723;DHT22;46574;52.818;6.516;2023-09-08T05:00:54;17.80;99.90
60723;DHT22;46574;52.818;6.516;2023-09-08T05:03:21;17.80;99.90
60723;DHT22;46574;52.818;6.516;2023-09-08T05:05:47;17.80;99.90
60723;DHT22;46574;52.818;6.516;2023-09-08T05:08:12;17.80;99.90
60723;DHT22;46574;52.818;6.516;2023-09-08T05:10:38;17.70;99.90
60723;DHT22;46574;52.818;6.516;2023-09-08T05:13:04;17.70;99.90
60723;DHT22;46574;52.818;6.516;2023-09-08T05:15:29;17.70;99.90
60723;DHT22;46574;52.818;6.516;2023-09-08T05:17:56;17.70;99.90
60723;DHT22;46574;52.818;6.516;2023-09-08T05:20:22;17.70;99.90
60723;DHT22;46574;52.818;6.516;2023-09-08T05:22:47;17.70;99.90
60723;DHT22;46574;52.818;6.516;2023-09-08T05:25:13;17.70;99.90
60723;DHT22;46574;52.818;6.516;2023-09-08T05:27:39;17.70;99.90
60723;DHT22;46574;52.818;6.516;2023-09-08T05:30:05;17.70;99.90
60723;DHT22;46574;52.818;6.516;2023-09-08T05:32:31;17.70;99.90
60723;DHT22;46574;52.818;6.516;2023-09-08T05:34:57;17.70;99.90
60723;DHT22;46574;52.818;6.516;2023-09-08T05:37:22;17.70;99.90
60723;DHT22;46574;52.818;6.516;2023-09-08T05:39:48;17.70;99.90
60723;DHT22;46574;52.818;6.516;2023-09-08T05:42:13;17.70;99.90
60723;DHT22;46574;52.818;6.516;2023-09-08T05:44:39;17.70;99.90
60723;DHT22;46574;52.818;6.516;2023-09-08T05:47:05;17.70;99.90
60723;DHT22;46574;52.818;6.516;2023-09-08T05:49:31;17.80;99.90
60723;DHT22;46574;52.818;6.516;2023-09-08T05:51:56;17.80;99.90
60723;DHT22;46574;52.818;6.516;2023-09-08T05:54:22;17.80;99.90
60723;DHT22;46574;52.818;6.516;2023-09-08T05:56:48;17.80;99.90
60723;DHT22;46574;52.818;6.516;2023-09-08T05:59:13;17.90;99.90
60723;DHT22;46574;52.818;6.516;2023-09-08T06:01:39;17.90;99.90
60723;DHT22;46574;52.818;6.516;2023-09-08T06:04:05;18.00;99.90
60723;DHT22;46574;52.818;6.516;2023-09-08T06:06:31;18.00;99.90
60723;DHT22;46574;52.818;6.516;2023-09-08T06:08:56;18.10;99.90
60723;DHT22;46574;52.818;6.516;2023-09-08T06:11:22;18.10;99.90
60723;DHT22;46574;52.818;6.516;2023-09-08T06:13:47;18.10;99.90
60723;DHT22;46574;52.818;6.516;2023-09-08T06:16:13;18.20;99.90
60723;DHT22;46574;52.818;6.516;2023-09-08T06:18:39;18.20;99.90
60723;DHT22;46574;52.818;6.516;2023-09-08T06:21:09;18.30;99.90
60723;DHT22;46574;52.818;6.516;2023-09-08T06:23:35;18.30;99.90
60723;DHT22;46574;52.818;6.516;2023-09-08T06:26:01;18.30;99.90
60723;DHT22;46574;52.818;6.516;2023-09-08T06:28:27;18.40;99.90
60723;DHT22;46574;52.818;6.516;2023-09-08T06:30:53;18.40;99.90
60723;DHT22;46574;52.818;6.516;2023-09-08T06:33:19;18.50;99.90
60723;DHT22;46574;52.818;6.516;2023-09-08T06:35:46;18.50;99.90
60723;DHT22;46574;52.818;6.516;2023-09-08T06:38:12;18.60;99.90
60723;DHT22;46574;52.818;6.516;2023-09-08T06:40:38;18.60;99.90
60723;DHT22;46574;52.818;6.516;2023-09-08T06:43:04;18.60;99.90
60723;DHT22;46574;52.818;6.516;2023-09-08T06:45:30;18.70;99.90
60723;DHT22;46574;52.818;6.516;2023-09-08T06:47:56;18.80;99.90
60723;DHT22;46574;52.818;6.516;2023-09-08T06:50:22;18.80;99.90
60723;DHT22;46574;52.818;6.516;2023-09-08T06:52:52;18.90;99.90
60723;DHT22;46574;52.818;6.516;2023-09-08T06:55:18;18.90;99.90
60723;DHT22;46574;52.818;6.516;2023-09-08T06:57:45;19.00;99.90
60723;DHT22;46574;52.818;6.516;2023-09-08T07:00:12;19.10;99.90
60723;DHT22;46574;52.818;6.516;2023-09-08T07:02:38;19.20;99.90
60723;DHT22;46574;52.818;6.516;2023-09-08T07:05:04;19.20;99.90
60723;DHT22;46574;52.818;6.516;2023-09-08T07:07:37;19.30;99.90
60723;DHT22;46574;52.818;6.516;2023-09-08T07:10:04;19.30;99.90
60723;DHT22;46574;52.818;6.516;2023-09-08T07:12:31;19.40;99.90
60723;DHT22;46574;52.818;6.516;2023-09-08T07:14:56;19.50;99.90
60723;DHT22;46574;52.818;6.516;2023-09-08T07:17:22;19.60;99.90
60723;DHT22;46574;52.818;6.516;2023-09-08T07:19:51;19.60;99.90
60723;DHT22;46574;52.818;6.516;2023-09-08T07:22:17;19.70;99.90
60723;DHT22;46574;52.818;6.516;2023-09-08T07:24:43;19.80;99.90
60723;DHT22;46574;52.818;6.516;2023-09-08T07:27:09;19.80;99.90
60723;DHT22;46574;52.818;6.516;2023-09-08T07:29:35;19.90;99.90
60723;DHT22;46574;52.818;6.516;2023-09-08T07:32:01;20.00;99.90
60723;DHT22;46574;52.818;6.516;2023-09-08T07:34:26;20.10;99.90
60723;DHT22;46574;52.818;6.516;2023-09-08T07:36:52;20.20;99.90
60723;DHT22;46574;52.818;6.516;2023-09-08T07:39:17;20.20;99.90
60723;DHT22;46574;52.818;6.516;2023-09-08T07:41:43;20.30;99.90
60723;DHT22;46574;52.818;6.516;2023-09-08T07:44:09;20.40;99.90
60723;DHT22;46574;52.818;6.516;2023-09-08T07:46:35;20.40;99.90
60723;DHT22;46574;52.818;6.516;2023-09-08T07:49:01;20.50;99.90
60723;DHT22;46574;52.818;6.516;2023-09-08T07:51:27;20.70;99.90
60723;DHT22;46574;52.818;6.516;2023-09-08T07:53:53;20.80;99.90
60723;DHT22;46574;52.818;6.516;2023-09-08T07:56:19;20.80;99.90
60723;DHT22;46574;52.818;6.516;2023-09-08T07:58:45;20.90;99.90
60723;DHT22;46574;52.818;6.516;2023-09-08T08:01:13;21.00;99.90
60723;DHT22;46574;52.818;6.516;2023-09-08T08:03:39;21.10;99.90
60723;DHT22;46574;52.818;6.516;2023-09-08T08:06:04;21.20;99.90
60723;DHT22;46574;52.818;6.516;2023-09-08T08:08:31;21.30;99.90
60723;DHT22;46574;52.818;6.516;2023-09-08T08:10:57;21.30;99.90
60723;DHT22;46574;52.818;6.516;2023-09-08T08:13:23;21.40;99.90
60723;DHT22;46574;52.818;6.516;2023-09-08T08:15:49;21.50;99.90
60723;DHT22;46574;52.818;6.516;2023-09-08T08:18:15;21.50;99.90
60723;DHT22;46574;52.818;6.516;2023-09-08T08:20:41;21.60;99.90
60723;DHT22;46574;52.818;6.516;2023-09-08T08:23:07;21.70;99.90
60723;DHT22;46574;52.818;6.516;2023-09-08T08:25:33;21.80;99.90
60723;DHT22;46574;52.818;6.516;2023-09-08T08:27:59;21.90;99.90
60723;DHT22;46574;52.818;6.516;2023-09-08T08:30:28;22.00;99.90
60723;DHT22;46574;52.818;6.516;2023-09-08T08:32:54;22.10;99.90
60723;DHT22;46574;52.818;6.516;2023-09-08T08:35:20;22.20;99.90
60723;DHT22;46574;52.818;6.516;2023-09-08T08:37:46;22.30;99.90
60723;DHT22;46574;52.818;6.516;2023-09-08T08:40:12;22.30;99.90
60723;DHT22;46574;52.818;6.516;2023-09-08T08:42:38;22.40;99.90
60723;DHT22;46574;52.818;6.516;2023-09-08T08:45:05;22.50;99.90
60723;DHT22;46574;52.818;6.516;2023-09-08T08:47:31;22.60;99.90
60723;DHT22;46574;52.818;6.516;2023-09-08T08:49:58;22.70;99.90
60723;DHT22;46574;52.818;6.516;2023-09-08T08:52:28;22.80;99.90
60723;DHT22;46574;52.818;6.516;2023-09-08T08:54:54;22.90;99.90
60723;DHT22;46574;52.818;6.516;2023-09-08T08:57:23;23.10;99.90
60723;DHT22;46574;52.818;6.516;2023-09-08T08:59:52;23.10;99.90
60723;DHT22;46574;52.818;6.516;2023-09-08T09:02:18;23.30;99.90
60723;DHT22;46574;52.818;6.516;2023-09-08T09:04:45;23.40;99.90
60723;DHT22;46574;52.818;6.516;2023-09-08T09:07:11;23.50;99.90
60723;DHT22;46574;52.818;6.516;2023-09-08T09:09:37;23.60;99.90
60723;DHT22;46574;52.818;6.516;2023-09-08T09:12:06;23.70;99.90
60723;DHT22;46574;52.818;6.516;2023-09-08T09:14:35;23.90;99.90
60723;DHT22;46574;52.818;6.516;2023-09-08T09:17:00;24.00;99.90
60723;DHT22;46574;52.818;6.516;2023-09-08T09:19:27;24.10;99.90
60723;DHT22;46574;52.818;6.516;2023-09-08T09:21:54;24.40;99.90
60723;DHT22;46574;52.818;6.516;2023-09-08T09:24:38;24.60;99.90
60723;DHT22;46574;52.818;6.516;2023-09-08T09:27:07;24.80;99.90
60723;DHT22;46574;52.818;6.516;2023-09-08T09:29:43;25.00;99.90
60723;DHT22;46574;52.818;6.516;2023-09-08T09:32:10;25.20;99.90
60723;DHT22;46574;52.818;6.516;2023-09-08T09:34:50;25.40;99.90
60723;DHT22;46574;52.818;6.516;2023-09-08T09:37:18;25.60;99.90
60723;DHT22;46574;52.818;6.516;2023-09-08T09:39:52;25.70;99.90
60723;DHT22;46574;52.818;6.516;2023-09-08T09:42:18;25.80;99.90
60723;DHT22;46574;52.818;6.516;2023-09-08T09:44:47;25.90;99.90
60723;DHT22;46574;52.818;6.516;2023-09-08T09:47:13;26.00;99.90
60723;DHT22;46574;52.818;6.516;2023-09-08T09:49:43;26.10;99.90
60723;DHT22;46574;52.818;6.516;2023-09-08T09:52:12;26.20;99.90
60723;DHT22;46574;52.818;6.516;2023-09-08T09:54:44;26.30;99.90
60723;DHT22;46574;52.818;6.516;2023-09-08T09:57:13;26.50;99.90
60723;DHT22;46574;52.818;6.516;2023-09-08T09:59:41;26.60;99.90
60723;DHT22;46574;52.818;6.516;2023-09-08T10:02:12;26.70;99.90
60723;DHT22;46574;52.818;6.516;2023-09-08T10:04:42;26.80;99.90
60723;DHT22;46574;52.818;6.516;2023-09-08T10:07:08;26.90;99.90
60723;DHT22;46574;52.818;6.516;2023-09-08T10:09:36;27.00;99.90
60723;DHT22;46574;52.818;6.516;2023-09-08T10:12:05;27.10;99.90
60723;DHT22;46574;52.818;6.516;2023-09-08T10:14:35;27.20;99.90
60723;DHT22;46574;52.818;6.516;2023-09-08T10:17:02;27.30;99.90
60723;DHT22;46574;52.818;6.516;2023-09-08T10:19:28;27.40;99.90
60723;DHT22;46574;52.818;6.516;2023-09-08T10:22:00;27.40;99.90
60723;DHT22;46574;52.818;6.516;2023-09-08T10:24:34;27.50;99.90
60723;DHT22;46574;52.818;6.516;2023-09-08T10:27:10;27.60;99.90
60723;DHT22;46574;52.818;6.516;2023-09-08T10:29:37;27.60;99.90
60723;DHT22;46574;52.818;6.516;2023-09-08T10:32:04;27.70;99.90
60723;DHT22;46574;52.818;6.516;2023-09-08T10:34:31;27.80;99.90
60723;DHT22;46574;52.818;6.516;2023-09-08T10:36:58;27.80;99.90
60723;DHT22;46574;52.818;6.516;2023-09-08T10:39:34;27.90;99.90
60723;DHT22;46574;52.818;6.516;2023-09-08T10:47:12;27.90;99.90
60723;DHT22;46574;52.818;6.516;2023-09-08T10:49:40;27.80;99.90
60723;DHT22;46574;52.818;6.516;2023-09-08T10:52:09;27.80;99.90
60723;DHT22;46574;52.818;6.516;2023-09-08T10:54:42;27.80;99.90
60723;DHT22;46574;52.818;6.516;2023-09-08T10:57:22;27.80;99.90
60723;DHT22;46574;52.818;6.516;2023-09-08T10:59:58;27.70;99.90
60723;DHT22;46574;52.818;6.516;2023-09-08T11:02:42;27.70;99.90
60723;DHT22;46574;52.818;6.516;2023-09-08T11:05:09;27.70;99.90
60723;DHT22;46574;52.818;6.516;2023-09-08T11:07:36;27.70;99.90
60723;DHT22;46574;52.818;6.516;2023-09-08T11:10:03;27.70;99.90
60723;DHT22;46574;52.818;6.516;2023-09-08T11:12:30;27.70;99.90
60723;DHT22;46574;52.818;6.516;2023-09-08T11:15:02;27.70;99.90
60723;DHT22;46574;52.818;6.516;2023-09-08T11:17:34;27.70;99.90
60723;DHT22;46574;52.818;6.516;2023-09-08T11:20:01;27.70;99.90
60723;DHT22;46574;52.818;6.516;2023-09-08T11:22:27;27.80;99.90
60723;DHT22;46574;52.818;6.516;2023-09-08T11:24:55;27.80;99.90
60723;DHT22;46574;52.818;6.516;2023-09-08T11:27:23;27.80;99.90
60723;DHT22;46574;52.818;6.516;2023-09-08T11:29:49;27.90;99.90
60723;DHT22;46574;52.818;6.516;2023-09-08T11:32:15;27.80;99.90
60723;DHT22;46574;52.818;6.516;2023-09-08T11:34:41;27.80;99.90
60723;DHT22;46574;52.818;6.516;2023-09-08T11:37:14;27.80;99.90
60723;DHT22;46574;52.818;6.516;2023-09-08T11:39:42;27.90;99.90
60723;DHT22;46574;52.818;6.516;2023-09-08T11:42:15;27.90;99.90
60723;DHT22;46574;52.818;6.516;2023-09-08T11:44:42;27.90;99.90
60723;DHT22;46574;52.818;6.516;2023-09-08T11:47:09;27.90;99.90
60723;DHT22;46574;52.818;6.516;2023-09-08T11:49:37;27.90;99.90
60723;DHT22;46574;52.818;6.516;2023-09-08T11:52:03;27.90;99.80
60723;DHT22;46574;52.818;6.516;2023-09-08T11:54:34;27.90;99.70
60723;DHT22;46574;52.818;6.516;2023-09-08T11:57:01;27.90;99.30
60723;DHT22;46574;52.818;6.516;2023-09-08T11:59:31;27.90;99.40
60723;DHT22;46574;52.818;6.516;2023-09-08T12:01:57;28.00;99.30
60723;DHT22;46574;52.818;6.516;2023-09-08T12:04:23;28.00;99.20
60723;DHT22;46574;52.818;6.516;2023-09-08T12:06:50;28.00;98.10
60723;DHT22;46574;52.818;6.516;2023-09-08T12:09:16;28.10;98.00
60723;DHT22;46574;52.818;6.516;2023-09-08T12:11:42;28.10;98.00
60723;DHT22;46574;52.818;6.516;2023-09-08T12:14:10;28.10;97.40
60723;DHT22;46574;52.818;6.516;2023-09-08T12:16:36;28.10;96.70
60723;DHT22;46574;52.818;6.516;2023-09-08T12:19:02;28.10;97.00
60723;DHT22;46574;52.818;6.516;2023-09-08T12:21:28;28.10;97.50
60723;DHT22;46574;52.818;6.516;2023-09-08T12:23:54;28.20;98.20
60723;DHT22;46574;52.818;6.516;2023-09-08T12:26:20;28.20;97.80
60723;DHT22;46574;52.818;6.516;2023-09-08T12:28:47;28.30;97.30
60723;DHT22;46574;52.818;6.516;2023-09-08T12:31:13;28.30;97.00
60723;DHT22;46574;52.818;6.516;2023-09-08T12:33:39;28.30;96.90
60723;DHT22;46574;52.818;6.516;2023-09-08T12:36:20;28.30;96.60
60723;DHT22;46574;52.818;6.516;2023-09-08T12:38:52;28.30;96.40
60723;DHT22;46574;52.818;6.516;2023-09-08T12:41:19;28.30;96.90
60723;DHT22;46574;52.818;6.516;2023-09-08T12:43:45;28.40;97.30
60723;DHT22;46574;52.818;6.516;2023-09-08T12:46:11;28.40;96.50
60723;DHT22;46574;52.818;6.516;2023-09-08T12:48:37;28.40;96.40
60723;DHT22;46574;52.818;6.516;2023-09-08T12:51:03;28.40;95.80
60723;DHT22;46574;52.818;6.516;2023-09-08T12:53:33;28.50;95.40
60723;DHT22;46574;52.818;6.516;2023-09-08T12:56:00;28.50;95.00
60723;DHT22;46574;52.818;6.516;2023-09-08T12:58:26;28.50;95.30
60723;DHT22;46574;52.818;6.516;2023-09-08T13:00:53;28.50;95.30
60723;DHT22;46574;52.818;6.516;2023-09-08T13:03:18;28.50;95.60
60723;DHT22;46574;52.818;6.516;2023-09-08T13:05:44;28.50;95.50
60723;DHT22;46574;52.818;6.516;2023-09-08T13:08:10;28.50;95.90
60723;DHT22;46574;52.818;6.516;2023-09-08T13:10:37;28.50;95.40
60723;DHT22;46574;52.818;6.516;2023-09-08T13:13:03;28.50;95.40
60723;DHT22;46574;52.818;6.516;2023-09-08T13:15:29;28.50;96.00
60723;DHT22;46574;52.818;6.516;2023-09-08T13:17:55;28.50;95.30
60723;DHT22;46574;52.818;6.516;2023-09-08T13:20:21;28.50;94.60
60723;DHT22;46574;52.818;6.516;2023-09-08T13:22:47;28.60;94.90
60723;DHT22;46574;52.818;6.516;2023-09-08T13:25:12;28.60;94.80
60723;DHT22;46574;52.818;6.516;2023-09-08T13:27:40;28.60;93.90
60723;DHT22;46574;52.818;6.516;2023-09-08T13:30:12;28.50;93.60
60723;DHT22;46574;52.818;6.516;2023-09-08T13:32:38;28.60;95.00
60723;DHT22;46574;52.818;6.516;2023-09-08T13:35:04;28.60;95.20
60723;DHT22;46574;52.818;6.516;2023-09-08T13:37:30;28.60;95.00
60723;DHT22;46574;52.818;6.516;2023-09-08T13:39:56;28.60;94.60
60723;DHT22;46574;52.818;6.516;2023-09-08T13:42:22;28.60;94.60
60723;DHT22;46574;52.818;6.516;2023-09-08T13:44:48;28.60;95.20
60723;DHT22;46574;52.818;6.516;2023-09-08T13:47:14;28.60;95.20
60723;DHT22;46574;52.818;6.516;2023-09-08T13:49:39;28.60;95.00
60723;DHT22;46574;52.818;6.516;2023-09-08T13:52:05;28.60;94.90
60723;DHT22;46574;52.818;6.516;2023-09-08T13:54:32;28.60;94.40
60723;DHT22;46574;52.818;6.516;2023-09-08T13:56:59;28.60;94.40
60723;DHT22;46574;52.818;6.516;2023-09-08T13:59:26;28.60;94.40
60723;DHT22;46574;52.818;6.516;2023-09-08T14:01:52;28.60;94.20
60723;DHT22;46574;52.818;6.516;2023-09-08T14:04:19;28.60;94.40
60723;DHT22;46574;52.818;6.516;2023-09-08T14:06:45;28.60;94.00
60723;DHT22;46574;52.818;6.516;2023-09-08T14:09:11;28.60;94.50
60723;DHT22;46574;52.818;6.516;2023-09-08T14:11:37;28.60;93.70
60723;DHT22;46574;52.818;6.516;2023-09-08T14:14:02;28.60;94.10
60723;DHT22;46574;52.818;6.516;2023-09-08T14:16:29;28.60;93.90
60723;DHT22;46574;52.818;6.516;2023-09-08T14:18:55;28.60;94.10
60723;DHT22;46574;52.818;6.516;2023-09-08T14:21:20;28.60;94.00
60723;DHT22;46574;52.818;6.516;2023-09-08T14:23:46;28.60;94.20
60723;DHT22;46574;52.818;6.516;2023-09-08T14:26:12;28.60;94.20
60723;DHT22;46574;52.818;6.516;2023-09-08T14:28:38;28.60;93.90
60723;DHT22;46574;52.818;6.516;2023-09-08T14:31:03;28.60;93.90
60723;DHT22;46574;52.818;6.516;2023-09-08T14:33:30;28.60;93.70
60723;DHT22;46574;52.818;6.516;2023-09-08T14:35:56;28.60;93.80
60723;DHT22;46574;52.818;6.516;2023-09-08T14:38:23;28.60;94.10
60723;DHT22;46574;52.818;6.516;2023-09-08T14:41:00;28.60;94.60
60723;DHT22;46574;52.818;6.516;2023-09-08T14:43:26;28.60;94.50
60723;DHT22;46574;52.818;6.516;2023-09-08T14:45:53;28.60;94.00
60723;DHT22;46574;52.818;6.516;2023-09-08T14:48:19;28.60;93.70
60723;DHT22;46574;52.818;6.516;2023-09-08T14:50:46;28.60;93.50
60723;DHT22;46574;52.818;6.516;2023-09-08T14:53:12;28.60;93.40
60723;DHT22;46574;52.818;6.516;2023-09-08T14:55:38;28.60;93.40
60723;DHT22;46574;52.818;6.516;2023-09-08T14:58:03;28.60;93.70
60723;DHT22;46574;52.818;6.516;2023-09-08T15:00:29;28.70;93.80
60723;DHT22;46574;52.818;6.516;2023-09-08T15:02:55;28.60;93.50
60723;DHT22;46574;52.818;6.516;2023-09-08T15:05:20;28.70;93.60
60723;DHT22;46574;52.818;6.516;2023-09-08T15:07:46;28.70;93.50
60723;DHT22;46574;52.818;6.516;2023-09-08T15:10:12;28.70;93.70
60723;DHT22;46574;52.818;6.516;2023-09-08T15:12:37;28.70;93.60
60723;DHT22;46574;52.818;6.516;2023-09-08T15:15:04;28.70;94.60
60723;DHT22;46574;52.818;6.516;2023-09-08T15:17:30;28.60;94.30
60723;DHT22;46574;52.818;6.516;2023-09-08T15:19:55;28.60;94.40
60723;DHT22;46574;52.818;6.516;2023-09-08T15:22:21;28.60;94.30
60723;DHT22;46574;52.818;6.516;2023-09-08T15:24:47;28.60;94.00
60723;DHT22;46574;52.818;6.516;2023-09-08T15:27:13;28.60;94.40
60723;DHT22;46574;52.818;6.516;2023-09-08T15:29:38;28.60;94.90
60723;DHT22;46574;52.818;6.516;2023-09-08T15:32:04;28.50;94.80
60723;DHT22;46574;52.818;6.516;2023-09-08T15:34:31;28.50;95.20